Airport ID:KTME
Update Time (UTC):15/07/2018 22:38
Wind Speed (Knots):10
Wind Direction (Magnetic):210
Temperature (°C):33.4
Dew Point (°C):22.8
Humidity (%):53.7
Altimeter (inHg):29.98
Density Altitude (Feet):02600
Visibility (Miles):7
Clouds (Hundreds of feet):CLR
Present Weather:HZ
METAR:METAR KTME 152235Z AUTO 21011KT 6SM HZ CLR 33/23 A2998 RMK AO2

The data displayed is for advisory purposes only and is not to be used for flight planning or operations.

This page is not automatically refreshed. Reload the page to see current data.